createdAt,value
2023-01-25T00:02:20.391Z,34.06
2023-01-25T00:05:25.716Z,33.83
2023-01-25T00:08:28.701Z,33.85
2023-01-25T00:11:34.504Z,33.87
2023-01-25T00:14:37.462Z,34.03
2023-01-25T00:17:42.551Z,34.00
2023-01-25T00:20:45.571Z,33.80
2023-01-25T00:23:48.650Z,33.88
2023-01-25T00:26:53.108Z,34.27
2023-01-25T00:29:56.325Z,34.16
2023-01-25T00:33:10.228Z,34.06
2023-01-25T00:36:36.422Z,34.03
2023-01-25T00:39:39.822Z,34.34
2023-01-25T00:42:44.224Z,34.00
2023-01-25T00:45:49.093Z,34.36
2023-01-25T00:48:55.586Z,34.46
2023-01-25T00:51:59.408Z,34.17
2023-01-25T00:55:02.407Z,34.18
2023-01-25T00:58:06.758Z,34.13
2023-01-25T01:01:10.209Z,34.30
2023-01-25T01:04:13.583Z,33.99
2023-01-25T01:07:17.064Z,34.19
2023-01-25T01:10:20.276Z,34.17
2023-01-25T01:13:24.678Z,34.04
2023-01-25T01:16:28.301Z,34.42
2023-01-25T01:19:31.895Z,34.01
2023-01-25T01:22:36.665Z,34.08
2023-01-25T01:25:39.680Z,33.96
2023-01-25T01:28:44.644Z,34.04
2023-01-25T01:31:47.811Z,34.03
2023-01-25T01:34:50.916Z,33.94
2023-01-25T01:37:55.990Z,34.07
2023-01-25T01:40:58.997Z,33.99
2023-01-25T01:44:03.433Z,33.91
2023-01-25T01:47:08.404Z,33.82
2023-01-25T01:50:22.147Z,33.80
2023-01-25T01:53:27.301Z,33.93
2023-01-25T01:56:36.177Z,33.99
2023-01-25T01:59:45.745Z,33.98
2023-01-25T02:02:51.116Z,33.89
2023-01-25T02:06:03.959Z,33.72
2023-01-25T02:09:07.176Z,33.92
2023-01-25T02:12:14.181Z,33.61
2023-01-25T02:15:18.639Z,33.80
2023-01-25T02:18:21.721Z,33.75
2023-01-25T02:21:25.589Z,33.72
2023-01-25T02:24:33.828Z,33.92
2023-01-25T02:27:42.598Z,33.88
2023-01-25T02:30:46.450Z,33.53
2023-01-25T02:33:49.468Z,33.87
2023-01-25T02:36:52.523Z,33.75
2023-01-25T02:39:55.717Z,33.69
2023-01-25T02:43:01.786Z,33.58
2023-01-25T02:46:15.918Z,33.70
2023-01-25T02:49:19.495Z,33.75
2023-01-25T02:52:22.538Z,33.57
2023-01-25T02:55:25.614Z,33.46
2023-01-25T02:58:30.089Z,33.59
2023-01-25T03:01:33.893Z,33.58
2023-01-25T03:04:36.947Z,33.24
2023-01-25T03:07:39.967Z,33.33
2023-01-25T03:10:43.041Z,33.46
2023-01-25T03:13:47.534Z,33.17
2023-01-25T03:16:50.623Z,33.41
2023-01-25T03:19:54.098Z,33.20
2023-01-25T03:22:58.943Z,33.25
2023-01-25T03:26:12.830Z,33.16
2023-01-25T03:29:17.448Z,33.60
2023-01-25T03:32:20.524Z,33.50
2023-01-25T03:35:23.639Z,33.61
2023-01-25T03:38:27.215Z,33.87
2023-01-25T03:41:30.218Z,33.56
2023-01-25T03:44:34.754Z,33.74
2023-01-25T03:47:37.734Z,33.58
2023-01-25T03:50:40.745Z,33.70
2023-01-25T03:53:43.782Z,33.46
2023-01-25T03:56:46.746Z,33.46
2023-01-25T03:59:51.219Z,33.48
2023-01-25T04:02:56.297Z,33.17
2023-01-25T04:06:02.658Z,32.86
2023-01-25T04:09:06.999Z,33.14
2023-01-25T04:12:09.995Z,32.86
2023-01-25T04:15:14.519Z,33.07
2023-01-25T04:18:20.439Z,32.68
2023-01-25T04:21:25.563Z,32.86
2023-01-25T04:24:28.599Z,32.70
2023-01-25T04:27:31.651Z,32.67
2023-01-25T04:30:36.090Z,32.79
2023-01-25T04:33:39.211Z,33.03
2023-01-25T04:36:44.315Z,32.93
2023-01-25T04:39:47.442Z,32.95
2023-01-25T04:42:50.521Z,33.12
2023-01-25T04:45:57.619Z,32.88
2023-01-25T04:49:00.698Z,32.94
2023-01-25T04:52:06.122Z,32.85
2023-01-25T04:55:10.260Z,33.25
2023-01-25T04:58:15.703Z,33.44
2023-01-25T05:01:21.507Z,33.95
2023-01-25T05:04:24.488Z,34.13
2023-01-25T05:07:27.551Z,33.94
2023-01-25T05:10:32.711Z,33.98
2023-01-25T05:13:35.788Z,33.35
2023-01-25T05:16:40.296Z,33.70
2023-01-25T05:19:43.372Z,33.73
2023-01-25T05:22:46.438Z,33.69
2023-01-25T05:26:06.808Z,34.08
2023-01-25T05:29:13.235Z,34.56
2023-01-25T05:32:19.226Z,34.50
2023-01-25T05:35:22.302Z,34.67
2023-01-25T05:38:25.364Z,34.54
2023-01-25T05:41:28.458Z,34.59
2023-01-25T05:44:31.481Z,34.39
2023-01-25T05:47:35.954Z,34.30
2023-01-25T05:50:38.923Z,34.36
2023-01-25T05:53:44.544Z,34.26
2023-01-25T05:56:50.050Z,34.28
2023-01-25T05:59:53.165Z,34.14
2023-01-25T06:03:01.185Z,34.24
2023-01-25T06:06:07.112Z,34.30
2023-01-25T06:09:12.433Z,34.39
2023-01-25T06:12:16.245Z,34.33
2023-01-25T06:15:19.196Z,34.46
2023-01-25T06:18:24.607Z,34.28
2023-01-25T06:21:27.673Z,34.36
2023-01-25T06:24:30.759Z,34.28
2023-01-25T06:27:36.637Z,34.36
2023-01-25T06:30:45.323Z,35.71
2023-01-25T06:33:52.046Z,37.56
2023-01-25T06:36:57.170Z,38.42
2023-01-25T06:40:00.284Z,38.99
2023-01-25T06:43:07.909Z,39.58
2023-01-25T06:46:12.766Z,39.43
2023-01-25T06:49:24.330Z,39.67
2023-01-25T06:52:29.121Z,38.81
2023-01-25T06:55:32.203Z,38.35
2023-01-25T06:58:38.388Z,37.87
2023-01-25T07:01:41.447Z,37.50
2023-01-25T07:04:47.859Z,37.26
2023-01-25T07:07:50.848Z,36.99
2023-01-25T07:10:58.137Z,36.87
2023-01-25T07:14:01.553Z,36.43
2023-01-25T07:17:04.644Z,36.67
2023-01-25T07:20:10.596Z,36.17
2023-01-25T07:23:13.609Z,36.24
2023-01-25T07:26:18.932Z,36.03
2023-01-25T07:29:22.077Z,35.79
2023-01-25T07:32:25.201Z,35.67
2023-01-25T07:35:29.556Z,35.56
2023-01-25T07:38:32.700Z,35.30
2023-01-25T07:41:35.748Z,35.46
2023-01-25T07:44:41.134Z,35.17
2023-01-25T07:47:44.219Z,35.12
2023-01-25T07:51:12.451Z,34.97
2023-01-25T07:54:15.631Z,34.95
2023-01-25T07:57:18.557Z,34.70
2023-01-25T08:00:23.938Z,34.70
2023-01-25T08:03:27.838Z,34.65
2023-01-25T08:06:35.889Z,34.39
2023-01-25T08:09:41.676Z,34.45
2023-01-25T08:12:47.005Z,34.34
2023-01-25T08:15:54.867Z,34.46
2023-01-25T08:19:00.243Z,34.37
2023-01-25T08:22:07.408Z,34.01
2023-01-25T08:25:12.986Z,34.36
2023-01-25T08:28:15.963Z,33.96
2023-01-25T08:31:21.299Z,34.17
2023-01-25T08:34:24.383Z,33.86
2023-01-25T08:37:29.877Z,34.04
2023-01-25T08:40:34.622Z,33.86
2023-01-25T08:43:40.397Z,33.79
2023-01-25T08:46:43.537Z,33.63
2023-01-25T08:49:46.629Z,33.87
2023-01-25T08:52:55.054Z,33.64
2023-01-25T08:55:58.246Z,33.61
2023-01-25T08:59:01.284Z,33.60
2023-01-25T09:02:05.410Z,33.67
2023-01-25T09:05:09.153Z,33.85
2023-01-25T09:08:13.662Z,33.78
2023-01-25T09:11:18.702Z,33.61
2023-01-25T09:14:21.824Z,33.60
2023-01-25T09:17:24.954Z,33.68
2023-01-25T09:20:29.444Z,33.40
2023-01-25T09:23:50.539Z,33.29
2023-01-25T09:26:59.615Z,33.55
2023-01-25T09:30:04.335Z,33.53
2023-01-25T09:33:07.544Z,33.55
2023-01-25T09:36:11.514Z,33.50
2023-01-25T09:39:18.723Z,33.35
2023-01-25T09:42:35.609Z,33.23
2023-01-25T09:45:38.897Z,33.36
2023-01-25T09:48:56.497Z,33.50
2023-01-25T09:52:33.274Z,33.32
2023-01-25T09:55:40.718Z,33.29
2023-01-25T09:58:47.236Z,33.31
2023-01-25T10:01:54.613Z,33.34
2023-01-25T10:05:03.947Z,33.17
2023-01-25T10:08:15.875Z,33.23
2023-01-25T10:11:24.506Z,33.19
2023-01-25T10:14:27.884Z,33.07
2023-01-25T10:17:36.970Z,33.34
2023-01-25T10:20:49.514Z,33.39
2023-01-25T10:24:17.889Z,33.11
2023-01-25T10:27:30.820Z,32.97
2023-01-25T10:30:40.153Z,32.85
2023-01-25T10:33:48.135Z,33.10
2023-01-25T10:36:55.327Z,33.09
2023-01-25T10:40:05.654Z,33.30
2023-01-25T10:43:16.749Z,33.16
2023-01-25T10:46:25.236Z,32.89
2023-01-25T10:49:37.991Z,32.99
2023-01-25T10:52:41.057Z,32.90
2023-01-25T10:55:57.105Z,32.93
2023-01-25T10:59:16.790Z,33.19
2023-01-25T11:02:37.798Z,33.04
2023-01-25T11:05:45.710Z,33.24
2023-01-25T11:08:48.850Z,33.02
2023-01-25T11:11:56.492Z,33.44
2023-01-25T11:15:27.515Z,33.24
2023-01-25T11:18:33.895Z,33.74
2023-01-25T11:21:36.991Z,33.74
2023-01-25T11:24:39.981Z,33.54
2023-01-25T11:27:43.157Z,33.61
2023-01-25T11:30:48.504Z,33.77
2023-01-25T11:33:51.762Z,33.43
2023-01-25T11:37:25.692Z,33.36
2023-01-25T11:40:38.644Z,33.25
2023-01-25T11:44:08.257Z,33.35
2023-01-25T11:47:28.693Z,33.51
2023-01-25T11:50:39.100Z,33.10
2023-01-25T11:54:03.983Z,32.99
2023-01-25T11:57:22.902Z,33.02
2023-01-25T12:00:42.982Z,33.11
2023-01-25T12:04:13.247Z,33.16
2023-01-25T12:07:24.147Z,32.87
2023-01-25T12:10:37.944Z,33.04
2023-01-25T12:13:47.567Z,33.03
2023-01-25T12:17:05.289Z,33.06
2023-01-25T12:20:37.032Z,33.02
2023-01-25T12:24:03.284Z,32.98
2023-01-25T12:27:15.634Z,32.93
2023-01-25T12:30:27.193Z,32.82
2023-01-25T12:33:39.679Z,32.89
2023-01-25T12:36:47.218Z,32.89
2023-01-25T12:39:53.663Z,32.65
2023-01-25T12:43:01.557Z,32.78
2023-01-25T12:46:14.480Z,32.70
2023-01-25T12:49:26.872Z,32.76
2023-01-25T12:52:38.694Z,32.80
2023-01-25T12:55:41.953Z,32.67
2023-01-25T12:58:52.153Z,32.67
2023-01-25T13:01:59.647Z,32.86
2023-01-25T13:05:15.940Z,32.53
2023-01-25T13:08:36.284Z,32.63
2023-01-25T13:11:41.666Z,32.64
2023-01-25T13:14:44.884Z,32.71
2023-01-25T13:17:47.999Z,32.44
2023-01-25T13:20:53.398Z,33.26
2023-01-25T13:24:20.486Z,32.93
2023-01-25T13:27:28.355Z,32.88
2023-01-25T13:30:34.385Z,33.17
2023-01-25T13:33:45.516Z,33.12
2023-01-25T13:36:48.774Z,33.24
2023-01-25T13:39:55.040Z,32.96
2023-01-25T13:43:03.874Z,33.74
2023-01-25T13:46:09.944Z,33.37
2023-01-25T13:49:23.843Z,33.63
2023-01-25T13:52:31.153Z,33.52
2023-01-25T13:55:42.738Z,33.15
2023-01-25T13:58:48.155Z,33.38
2023-01-25T14:01:52.657Z,33.15
2023-01-25T14:04:59.522Z,33.08
2023-01-25T14:08:02.608Z,33.02
2023-01-25T14:11:07.531Z,33.11
2023-01-25T14:14:20.759Z,33.13
2023-01-25T14:17:25.117Z,32.98
2023-01-25T14:20:28.259Z,33.00
2023-01-25T14:23:32.729Z,33.05
2023-01-25T14:26:40.781Z,32.91
2023-01-25T14:29:49.794Z,32.95
2023-01-25T14:32:55.164Z,32.89
2023-01-25T14:36:23.098Z,32.60
2023-01-25T14:39:34.219Z,32.82
2023-01-25T14:42:38.712Z,32.68
2023-01-25T14:45:41.812Z,32.81
2023-01-25T14:48:46.958Z,32.94
2023-01-25T14:51:57.323Z,32.54
2023-01-25T14:55:01.775Z,32.42
2023-01-25T14:58:08.556Z,32.59
2023-01-25T15:01:26.094Z,32.57
2023-01-25T15:04:29.381Z,32.61
2023-01-25T15:07:43.074Z,32.42
2023-01-25T15:10:53.467Z,32.33
2023-01-25T15:14:05.965Z,32.42
2023-01-25T15:17:43.197Z,32.37
2023-01-25T15:20:51.718Z,32.47
2023-01-25T15:23:58.422Z,32.36
2023-01-25T15:27:03.441Z,32.34
2023-01-25T15:30:13.638Z,32.48
2023-01-25T15:33:21.229Z,32.33
2023-01-25T15:36:24.406Z,32.11
2023-01-25T15:39:31.151Z,32.10
2023-01-25T15:42:36.237Z,32.30
2023-01-25T15:45:41.476Z,32.14
2023-01-25T15:48:46.719Z,32.48
2023-01-25T15:51:49.710Z,32.24
2023-01-25T15:55:01.510Z,32.14
2023-01-25T15:58:06.362Z,32.20
2023-01-25T16:01:11.144Z,32.09
2023-01-25T16:04:16.532Z,32.18
2023-01-25T16:07:25.144Z,32.22
2023-01-25T16:10:28.146Z,32.08
2023-01-25T16:13:33.591Z,32.54
2023-01-25T16:16:50.278Z,32.44
2023-01-25T16:19:53.267Z,32.25
2023-01-25T16:22:58.026Z,32.54
2023-01-25T16:26:01.044Z,32.35
2023-01-25T16:29:04.162Z,32.42
2023-01-25T16:32:08.814Z,32.35
2023-01-25T16:35:12.088Z,32.58
2023-01-25T16:38:15.103Z,32.35
2023-01-25T16:41:18.954Z,32.57
2023-01-25T16:44:22.025Z,32.88
2023-01-25T16:47:27.861Z,33.07
2023-01-25T16:50:31.044Z,32.94
2023-01-25T16:53:34.057Z,32.78
2023-01-25T16:56:38.292Z,32.40
2023-01-25T16:59:43.727Z,32.56
2023-01-25T17:02:58.627Z,32.73
2023-01-25T17:06:02.272Z,32.36
2023-01-25T17:09:21.451Z,31.97
2023-01-25T17:12:25.403Z,31.89
2023-01-25T17:15:28.493Z,31.72
2023-01-25T17:18:34.483Z,31.57
2023-01-25T17:21:39.319Z,31.37
2023-01-25T17:24:44.184Z,31.54
2023-01-25T17:27:47.285Z,31.61
2023-01-25T17:30:53.465Z,31.26
2023-01-25T17:34:02.109Z,31.41
2023-01-25T17:37:05.152Z,31.61
2023-01-25T17:40:10.436Z,31.23
2023-01-25T17:43:13.759Z,31.37
2023-01-25T17:46:24.240Z,31.47
2023-01-25T17:49:30.534Z,31.55
2023-01-25T17:52:33.580Z,31.50
2023-01-25T17:55:41.041Z,32.36
2023-01-25T17:58:44.107Z,32.58
2023-01-25T18:01:47.179Z,33.03
2023-01-25T18:04:51.526Z,32.95
2023-01-25T18:07:55.877Z,33.15
2023-01-25T18:11:02.331Z,32.96
2023-01-25T18:14:09.090Z,33.25
2023-01-25T18:17:12.268Z,33.06
2023-01-25T18:20:17.642Z,32.94
2023-01-25T18:23:20.737Z,32.63
2023-01-25T18:26:25.558Z,33.15
2023-01-25T18:29:45.747Z,32.67
2023-01-25T18:32:48.790Z,31.48
2023-01-25T18:35:55.253Z,30.27
2023-01-25T18:39:07.052Z,29.78
2023-01-25T18:42:10.286Z,29.93
2023-01-25T18:45:16.315Z,29.41
2023-01-25T18:48:21.208Z,29.41
2023-01-25T18:51:26.356Z,29.11
2023-01-25T18:54:29.505Z,28.99
2023-01-25T18:57:33.736Z,28.33
2023-01-25T19:00:36.920Z,28.77
2023-01-25T19:03:41.921Z,28.38
2023-01-25T19:06:46.328Z,28.70
2023-01-25T19:09:49.455Z,28.49
2023-01-25T19:12:52.534Z,28.54
2023-01-25T19:16:03.264Z,28.53
2023-01-25T19:19:06.353Z,28.87
2023-01-25T19:22:11.553Z,28.71
2023-01-25T19:25:20.279Z,28.81
2023-01-25T19:28:25.494Z,28.64
2023-01-25T19:31:32.883Z,28.49
2023-01-25T19:34:36.166Z,28.80
2023-01-25T19:37:41.586Z,29.90
2023-01-25T19:40:46.625Z,30.92
2023-01-25T19:43:56.219Z,29.58
2023-01-25T19:47:00.236Z,28.75
2023-01-25T19:50:03.748Z,28.51
2023-01-25T19:53:08.319Z,28.46
2023-01-25T19:56:11.525Z,28.20
2023-01-25T19:59:16.805Z,28.17
2023-01-25T20:02:21.240Z,28.73
2023-01-25T20:05:24.282Z,28.99
2023-01-25T20:08:31.373Z,29.03
2023-01-25T20:11:36.157Z,29.17
2023-01-25T20:14:39.286Z,29.12
2023-01-25T20:17:44.299Z,29.33
2023-01-25T20:20:56.009Z,29.12
2023-01-25T20:24:04.739Z,28.89
2023-01-25T20:27:07.840Z,28.60
2023-01-25T20:30:11.928Z,28.64
2023-01-25T20:33:16.658Z,29.10
2023-01-25T20:36:20.263Z,30.55
2023-01-25T20:39:26.965Z,31.06
2023-01-25T20:42:32.861Z,31.55
2023-01-25T20:45:38.323Z,32.05
2023-01-25T20:48:41.382Z,32.04
2023-01-25T20:51:46.577Z,32.18
2023-01-25T20:54:53.456Z,32.30
2023-01-25T20:57:56.558Z,32.50
2023-01-25T21:00:59.607Z,32.51
2023-01-25T21:04:02.632Z,32.49
2023-01-25T21:07:07.011Z,32.13
2023-01-25T21:10:15.641Z,32.11
2023-01-25T21:13:19.272Z,32.12
2023-01-25T21:16:23.999Z,32.04
2023-01-25T21:19:27.689Z,31.91
2023-01-25T21:22:32.671Z,32.37
2023-01-25T21:25:39.685Z,31.71
2023-01-25T21:28:43.089Z,31.96
2023-01-25T21:31:46.209Z,32.06
2023-01-25T21:34:51.116Z,32.27
2023-01-25T21:37:54.124Z,32.19
2023-01-25T21:41:02.730Z,32.11
2023-01-25T21:44:23.542Z,31.90
2023-01-25T21:47:31.032Z,32.28
2023-01-25T21:50:54.247Z,32.07
2023-01-25T21:53:57.308Z,32.94
2023-01-25T21:57:03.602Z,32.66
2023-01-25T22:00:11.014Z,32.67
2023-01-25T22:03:14.295Z,32.71
2023-01-25T22:06:17.953Z,32.56
2023-01-25T22:09:21.386Z,32.56
2023-01-25T22:12:25.829Z,32.59
2023-01-25T22:15:31.750Z,32.25
2023-01-25T22:18:36.754Z,32.46
2023-01-25T22:21:39.764Z,32.23
2023-01-25T22:24:42.842Z,32.29
2023-01-25T22:27:54.243Z,32.23
2023-01-25T22:30:57.446Z,32.11
2023-01-25T22:34:00.838Z,32.19
2023-01-25T22:37:03.805Z,31.96
2023-01-25T22:40:09.267Z,32.28
2023-01-25T22:43:13.889Z,31.94
2023-01-25T22:46:18.814Z,32.07
2023-01-25T22:49:21.918Z,32.19
2023-01-25T22:52:24.949Z,32.24
2023-01-25T22:55:27.966Z,32.13
2023-01-25T22:58:33.995Z,32.26
2023-01-25T23:01:45.066Z,31.81
2023-01-25T23:04:48.247Z,31.82
2023-01-25T23:07:51.341Z,32.15
2023-01-25T23:10:54.516Z,31.94
2023-01-25T23:14:16.855Z,31.94
2023-01-25T23:17:38.212Z,31.79
2023-01-25T23:20:43.438Z,31.56
2023-01-25T23:23:46.642Z,31.61
2023-01-25T23:26:49.711Z,31.88
2023-01-25T23:29:54.202Z,31.74
2023-01-25T23:32:57.287Z,31.37
2023-01-25T23:36:10.171Z,31.85
2023-01-25T23:39:13.251Z,31.84
2023-01-25T23:42:16.332Z,31.45
2023-01-25T23:45:20.784Z,31.62
2023-01-25T23:48:33.809Z,31.73
2023-01-25T23:51:36.805Z,31.76
2023-01-25T23:54:39.885Z,31.70
2023-01-25T23:57:42.910Z,31.64
